sensor_id;sensor_type;location;lat;lon;timestamp;P1;durP1;ratioP1;P2;durP2;ratioP2
22606;SDS011;11470;20.968;105.834;2023-04-25T00:01:12;52.22;;;29.08;;
22606;SDS011;11470;20.968;105.834;2023-04-25T00:06:17;43.47;;;27.35;;
22606;SDS011;11470;20.968;105.834;2023-04-25T00:11:24;43.28;;;26.83;;
22606;SDS011;11470;20.968;105.834;2023-04-25T00:21:37;65.30;;;34.72;;
22606;SDS011;11470;20.968;105.834;2023-04-25T00:26:44;35.75;;;18.77;;
22606;SDS011;11470;20.968;105.834;2023-04-25T00:31:50;57.45;;;31.17;;
22606;SDS011;11470;20.968;105.834;2023-04-25T00:36:55;54.17;;;30.50;;
22606;SDS011;11470;20.968;105.834;2023-04-25T00:42:02;52.75;;;33.55;;
22606;SDS011;11470;20.968;105.834;2023-04-25T00:47:07;42.55;;;20.52;;
22606;SDS011;11470;20.968;105.834;2023-04-25T00:52:15;48.28;;;27.30;;
22606;SDS011;11470;20.968;105.834;2023-04-25T00:57:23;41.90;;;24.88;;
22606;SDS011;11470;20.968;105.834;2023-04-25T01:02:29;44.33;;;25.08;;
22606;SDS011;11470;20.968;105.834;2023-04-25T01:07:36;41.75;;;27.52;;
22606;SDS011;11470;20.968;105.834;2023-04-25T01:12:42;31.67;;;18.88;;
22606;SDS011;11470;20.968;105.834;2023-04-25T01:17:48;26.30;;;14.07;;
22606;SDS011;11470;20.968;105.834;2023-04-25T01:22:54;29.13;;;16.98;;
22606;SDS011;11470;20.968;105.834;2023-04-25T01:28:00;23.98;;;14.63;;
22606;SDS011;11470;20.968;105.834;2023-04-25T01:33:07;20.63;;;12.63;;
22606;SDS011;11470;20.968;105.834;2023-04-25T01:38:14;24.10;;;14.57;;
22606;SDS011;11470;20.968;105.834;2023-04-25T01:43:19;17.65;;;12.40;;
22606;SDS011;11470;20.968;105.834;2023-04-25T01:48:25;17.65;;;11.73;;
22606;SDS011;11470;20.968;105.834;2023-04-25T01:53:31;17.20;;;11.23;;
22606;SDS011;11470;20.968;105.834;2023-04-25T01:58:41;16.55;;;9.60;;
22606;SDS011;11470;20.968;105.834;2023-04-25T02:03:54;8.93;;;5.60;;
22606;SDS011;11470;20.968;105.834;2023-04-25T02:09:07;13.75;;;6.55;;
22606;SDS011;11470;20.968;105.834;2023-04-25T02:14:22;13.40;;;7.60;;
22606;SDS011;11470;20.968;105.834;2023-04-25T02:19:39;10.95;;;6.13;;
22606;SDS011;11470;20.968;105.834;2023-04-25T02:29:57;9.30;;;4.82;;
22606;SDS011;11470;20.968;105.834;2023-04-25T02:35:05;9.23;;;4.50;;
22606;SDS011;11470;20.968;105.834;2023-04-25T02:40:15;8.32;;;4.40;;
22606;SDS011;11470;20.968;105.834;2023-04-25T02:45:21;6.10;;;3.58;;
22606;SDS011;11470;20.968;105.834;2023-04-25T02:50:27;7.43;;;3.92;;
22606;SDS011;11470;20.968;105.834;2023-04-25T02:55:34;5.95;;;3.38;;
22606;SDS011;11470;20.968;105.834;2023-04-25T03:00:40;7.80;;;4.47;;
22606;SDS011;11470;20.968;105.834;2023-04-25T03:05:50;8.07;;;4.22;;
22606;SDS011;11470;20.968;105.834;2023-04-25T03:11:01;8.50;;;2.35;;
22606;SDS011;11470;20.968;105.834;2023-04-25T03:16:06;7.03;;;3.00;;
22606;SDS011;11470;20.968;105.834;2023-04-25T03:21:12;8.10;;;3.42;;
22606;SDS011;11470;20.968;105.834;2023-04-25T03:26:18;8.40;;;4.75;;
22606;SDS011;11470;20.968;105.834;2023-04-25T03:31:24;6.63;;;3.60;;
22606;SDS011;11470;20.968;105.834;2023-04-25T03:42:35;10.27;;;5.72;;
22606;SDS011;11470;20.968;105.834;2023-04-25T03:47:41;7.13;;;2.33;;
22606;SDS011;11470;20.968;105.834;2023-04-25T03:57:53;7.37;;;4.23;;
22606;SDS011;11470;20.968;105.834;2023-04-25T04:08:05;7.18;;;3.15;;
22606;SDS011;11470;20.968;105.834;2023-04-25T04:13:13;6.45;;;3.47;;
22606;SDS011;11470;20.968;105.834;2023-04-25T04:18:27;3.50;;;2.63;;
22606;SDS011;11470;20.968;105.834;2023-04-25T04:28:43;8.27;;;3.40;;
22606;SDS011;11470;20.968;105.834;2023-04-25T04:34:00;5.18;;;3.13;;
22606;SDS011;11470;20.968;105.834;2023-04-25T04:39:06;7.28;;;2.67;;
22606;SDS011;11470;20.968;105.834;2023-04-25T04:44:24;7.28;;;4.18;;
22606;SDS011;11470;20.968;105.834;2023-04-25T04:49:50;5.10;;;2.90;;
22606;SDS011;11470;20.968;105.834;2023-04-25T04:55:18;4.78;;;3.25;;
22606;SDS011;11470;20.968;105.834;2023-04-25T05:00:45;5.60;;;2.55;;
22606;SDS011;11470;20.968;105.834;2023-04-25T05:06:23;7.90;;;4.45;;
22606;SDS011;11470;20.968;105.834;2023-04-25T05:11:47;8.60;;;3.90;;
22606;SDS011;11470;20.968;105.834;2023-04-25T05:17:01;9.20;;;4.32;;
22606;SDS011;11470;20.968;105.834;2023-04-25T05:22:25;9.02;;;3.47;;
22606;SDS011;11470;20.968;105.834;2023-04-25T05:27:44;8.23;;;4.22;;
22606;SDS011;11470;20.968;105.834;2023-04-25T05:33:10;5.40;;;3.87;;
22606;SDS011;11470;20.968;105.834;2023-04-25T05:38:17;8.68;;;3.00;;
22606;SDS011;11470;20.968;105.834;2023-04-25T05:43:42;7.93;;;3.95;;
22606;SDS011;11470;20.968;105.834;2023-04-25T05:49:05;12.32;;;3.40;;
22606;SDS011;11470;20.968;105.834;2023-04-25T05:54:31;5.83;;;3.07;;
22606;SDS011;11470;20.968;105.834;2023-04-25T05:59:39;7.35;;;3.90;;
22606;SDS011;11470;20.968;105.834;2023-04-25T06:04:45;6.35;;;3.28;;
22606;SDS011;11470;20.968;105.834;2023-04-25T06:09:51;7.15;;;3.45;;
22606;SDS011;11470;20.968;105.834;2023-04-25T06:14:57;13.50;;;4.28;;
22606;SDS011;11470;20.968;105.834;2023-04-25T06:20:05;8.52;;;3.60;;
22606;SDS011;11470;20.968;105.834;2023-04-25T06:25:14;8.65;;;4.38;;
22606;SDS011;11470;20.968;105.834;2023-04-25T06:30:21;5.28;;;2.47;;
22606;SDS011;11470;20.968;105.834;2023-04-25T06:35:35;9.57;;;4.88;;
22606;SDS011;11470;20.968;105.834;2023-04-25T06:40:44;6.95;;;2.78;;
22606;SDS011;11470;20.968;105.834;2023-04-25T06:45:52;7.18;;;3.55;;
22606;SDS011;11470;20.968;105.834;2023-04-25T06:51:01;7.57;;;3.72;;
22606;SDS011;11470;20.968;105.834;2023-04-25T06:56:08;8.70;;;3.33;;
22606;SDS011;11470;20.968;105.834;2023-04-25T07:01:32;4.75;;;2.50;;
22606;SDS011;11470;20.968;105.834;2023-04-25T07:06:44;5.88;;;2.28;;
22606;SDS011;11470;20.968;105.834;2023-04-25T07:11:57;5.25;;;3.00;;
22606;SDS011;11470;20.968;105.834;2023-04-25T07:17:03;5.78;;;2.50;;
22606;SDS011;11470;20.968;105.834;2023-04-25T07:22:10;4.82;;;3.22;;
22606;SDS011;11470;20.968;105.834;2023-04-25T07:27:17;5.65;;;2.63;;
22606;SDS011;11470;20.968;105.834;2023-04-25T07:32:39;7.10;;;3.78;;
22606;SDS011;11470;20.968;105.834;2023-04-25T07:37:45;5.90;;;2.38;;
22606;SDS011;11470;20.968;105.834;2023-04-25T07:42:53;7.53;;;2.95;;
22606;SDS011;11470;20.968;105.834;2023-04-25T07:48:37;5.00;;;3.03;;
22606;SDS011;11470;20.968;105.834;2023-04-25T07:53:43;7.68;;;4.10;;
22606;SDS011;11470;20.968;105.834;2023-04-25T08:04:37;7.55;;;3.78;;
22606;SDS011;11470;20.968;105.834;2023-04-25T08:09:46;6.25;;;3.35;;
22606;SDS011;11470;20.968;105.834;2023-04-25T08:14:59;6.80;;;3.65;;
22606;SDS011;11470;20.968;105.834;2023-04-25T08:20:09;3.95;;;2.10;;
22606;SDS011;11470;20.968;105.834;2023-04-25T08:25:16;9.32;;;3.35;;
22606;SDS011;11470;20.968;105.834;2023-04-25T08:30:25;6.63;;;3.80;;
22606;SDS011;11470;20.968;105.834;2023-04-25T08:35:31;5.43;;;2.92;;
22606;SDS011;11470;20.968;105.834;2023-04-25T08:40:41;6.75;;;3.60;;
22606;SDS011;11470;20.968;105.834;2023-04-25T08:45:50;8.52;;;4.50;;
22606;SDS011;11470;20.968;105.834;2023-04-25T08:51:08;9.27;;;4.03;;
22606;SDS011;11470;20.968;105.834;2023-04-25T08:56:22;8.10;;;4.07;;
22606;SDS011;11470;20.968;105.834;2023-04-25T09:01:30;8.02;;;4.13;;
22606;SDS011;11470;20.968;105.834;2023-04-25T09:06:37;9.98;;;4.28;;
22606;SDS011;11470;20.968;105.834;2023-04-25T09:11:42;9.95;;;4.43;;
22606;SDS011;11470;20.968;105.834;2023-04-25T09:22:23;9.80;;;5.50;;
22606;SDS011;11470;20.968;105.834;2023-04-25T09:27:30;12.10;;;5.65;;
22606;SDS011;11470;20.968;105.834;2023-04-25T09:32:52;12.93;;;6.03;;
22606;SDS011;11470;20.968;105.834;2023-04-25T09:38:10;14.00;;;7.78;;
22606;SDS011;11470;20.968;105.834;2023-04-25T09:43:38;13.75;;;7.45;;
22606;SDS011;11470;20.968;105.834;2023-04-25T09:48:49;13.70;;;7.13;;
22606;SDS011;11470;20.968;105.834;2023-04-25T09:54:05;13.10;;;6.63;;
22606;SDS011;11470;20.968;105.834;2023-04-25T09:59:15;14.90;;;7.35;;
22606;SDS011;11470;20.968;105.834;2023-04-25T10:04:25;8.60;;;3.78;;
22606;SDS011;11470;20.968;105.834;2023-04-25T10:09:41;12.52;;;7.18;;
22606;SDS011;11470;20.968;105.834;2023-04-25T10:14:50;12.15;;;4.53;;
22606;SDS011;11470;20.968;105.834;2023-04-25T10:19:57;10.77;;;5.32;;
22606;SDS011;11470;20.968;105.834;2023-04-25T10:25:03;14.25;;;6.70;;
22606;SDS011;11470;20.968;105.834;2023-04-25T10:30:15;12.95;;;6.95;;
22606;SDS011;11470;20.968;105.834;2023-04-25T10:35:29;12.32;;;5.63;;
22606;SDS011;11470;20.968;105.834;2023-04-25T10:40:35;10.13;;;5.75;;
22606;SDS011;11470;20.968;105.834;2023-04-25T10:45:52;17.15;;;6.93;;
22606;SDS011;11470;20.968;105.834;2023-04-25T10:51:31;10.13;;;5.67;;
22606;SDS011;11470;20.968;105.834;2023-04-25T10:56:42;17.05;;;7.50;;
22606;SDS011;11470;20.968;105.834;2023-04-25T11:01:51;9.85;;;4.03;;
22606;SDS011;11470;20.968;105.834;2023-04-25T11:07:07;11.68;;;6.43;;
22606;SDS011;11470;20.968;105.834;2023-04-25T11:12:26;13.43;;;6.43;;
22606;SDS011;11470;20.968;105.834;2023-04-25T11:17:33;14.07;;;6.72;;
22606;SDS011;11470;20.968;105.834;2023-04-25T11:23:19;12.85;;;7.07;;
22606;SDS011;11470;20.968;105.834;2023-04-25T11:28:25;15.45;;;6.60;;
22606;SDS011;11470;20.968;105.834;2023-04-25T11:33:31;10.52;;;6.63;;
22606;SDS011;11470;20.968;105.834;2023-04-25T11:38:37;17.55;;;6.80;;
22606;SDS011;11470;20.968;105.834;2023-04-25T11:43:48;14.38;;;7.38;;
22606;SDS011;11470;20.968;105.834;2023-04-25T11:48:59;17.05;;;7.63;;
22606;SDS011;11470;20.968;105.834;2023-04-25T11:54:05;12.85;;;6.32;;
22606;SDS011;11470;20.968;105.834;2023-04-25T12:06:16;15.98;;;6.82;;
22606;SDS011;11470;20.968;105.834;2023-04-25T12:11:22;13.25;;;7.00;;
22606;SDS011;11470;20.968;105.834;2023-04-25T12:16:28;13.40;;;7.05;;
22606;SDS011;11470;20.968;105.834;2023-04-25T12:21:37;12.95;;;6.95;;
22606;SDS011;11470;20.968;105.834;2023-04-25T12:27:04;12.95;;;6.45;;
22606;SDS011;11470;20.968;105.834;2023-04-25T12:32:11;15.23;;;7.97;;
22606;SDS011;11470;20.968;105.834;2023-04-25T12:37:18;14.73;;;6.90;;
22606;SDS011;11470;20.968;105.834;2023-04-25T12:48:01;11.90;;;7.20;;
22606;SDS011;11470;20.968;105.834;2023-04-25T12:53:08;12.38;;;6.35;;
22606;SDS011;11470;20.968;105.834;2023-04-25T12:58:21;10.55;;;5.57;;
22606;SDS011;11470;20.968;105.834;2023-04-25T13:03:29;13.43;;;6.63;;
22606;SDS011;11470;20.968;105.834;2023-04-25T13:08:37;10.02;;;5.35;;
22606;SDS011;11470;20.968;105.834;2023-04-25T13:13:43;10.57;;;6.32;;
22606;SDS011;11470;20.968;105.834;2023-04-25T13:23:56;9.75;;;5.32;;
22606;SDS011;11470;20.968;105.834;2023-04-25T13:29:11;10.20;;;6.75;;
22606;SDS011;11470;20.968;105.834;2023-04-25T13:34:25;9.13;;;3.78;;
22606;SDS011;11470;20.968;105.834;2023-04-25T13:39:35;9.10;;;4.70;;
22606;SDS011;11470;20.968;105.834;2023-04-25T13:44:44;10.32;;;4.88;;
22606;SDS011;11470;20.968;105.834;2023-04-25T13:54:57;7.87;;;4.57;;
22606;SDS011;11470;20.968;105.834;2023-04-25T14:00:08;14.52;;;4.07;;
22606;SDS011;11470;20.968;105.834;2023-04-25T14:05:15;10.65;;;4.55;;
22606;SDS011;11470;20.968;105.834;2023-04-25T14:11:05;18.20;;;9.55;;
22606;SDS011;11470;20.968;105.834;2023-04-25T14:16:11;10.75;;;5.95;;
22606;SDS011;11470;20.968;105.834;2023-04-25T14:26:24;22.52;;;8.10;;
22606;SDS011;11470;20.968;105.834;2023-04-25T14:31:31;21.50;;;8.82;;
22606;SDS011;11470;20.968;105.834;2023-04-25T14:36:39;17.67;;;8.35;;
22606;SDS011;11470;20.968;105.834;2023-04-25T14:41:45;15.98;;;7.78;;
22606;SDS011;11470;20.968;105.834;2023-04-25T14:46:50;16.43;;;7.40;;
22606;SDS011;11470;20.968;105.834;2023-04-25T14:52:02;20.33;;;7.55;;
22606;SDS011;11470;20.968;105.834;2023-04-25T14:57:07;13.88;;;6.88;;
22606;SDS011;11470;20.968;105.834;2023-04-25T15:02:26;15.07;;;7.40;;
22606;SDS011;11470;20.968;105.834;2023-04-25T15:07:32;16.38;;;8.07;;
22606;SDS011;11470;20.968;105.834;2023-04-25T15:18:30;14.30;;;8.40;;
22606;SDS011;11470;20.968;105.834;2023-04-25T15:23:42;17.30;;;7.65;;
22606;SDS011;11470;20.968;105.834;2023-04-25T15:29:17;14.00;;;8.05;;
22606;SDS011;11470;20.968;105.834;2023-04-25T15:34:43;11.60;;;6.30;;
22606;SDS011;11470;20.968;105.834;2023-04-25T15:39:50;15.00;;;8.98;;
22606;SDS011;11470;20.968;105.834;2023-04-25T15:45:17;14.70;;;8.65;;
22606;SDS011;11470;20.968;105.834;2023-04-25T15:50:24;20.42;;;10.18;;
22606;SDS011;11470;20.968;105.834;2023-04-25T15:55:30;21.23;;;10.65;;
22606;SDS011;11470;20.968;105.834;2023-04-25T16:00:41;20.90;;;11.50;;
22606;SDS011;11470;20.968;105.834;2023-04-25T16:05:47;22.80;;;12.10;;
22606;SDS011;11470;20.968;105.834;2023-04-25T16:11:39;19.60;;;10.30;;
22606;SDS011;11470;20.968;105.834;2023-04-25T16:17:23;18.70;;;9.60;;
22606;SDS011;11470;20.968;105.834;2023-04-25T16:22:28;20.38;;;10.77;;
22606;SDS011;11470;20.968;105.834;2023-04-25T16:27:39;15.88;;;9.20;;
22606;SDS011;11470;20.968;105.834;2023-04-25T16:32:44;18.30;;;10.17;;
22606;SDS011;11470;20.968;105.834;2023-04-25T16:37:51;16.63;;;10.55;;
22606;SDS011;11470;20.968;105.834;2023-04-25T16:42:56;17.73;;;11.13;;
22606;SDS011;11470;20.968;105.834;2023-04-25T16:48:03;16.67;;;9.55;;
22606;SDS011;11470;20.968;105.834;2023-04-25T16:53:09;15.18;;;10.13;;
22606;SDS011;11470;20.968;105.834;2023-04-25T16:58:14;20.33;;;11.20;;
22606;SDS011;11470;20.968;105.834;2023-04-25T17:03:19;25.27;;;12.83;;
22606;SDS011;11470;20.968;105.834;2023-04-25T17:08:26;23.08;;;11.95;;
22606;SDS011;11470;20.968;105.834;2023-04-25T17:13:32;19.90;;;10.82;;
22606;SDS011;11470;20.968;105.834;2023-04-25T17:18:38;19.58;;;11.23;;
22606;SDS011;11470;20.968;105.834;2023-04-25T17:23:50;21.00;;;10.50;;
22606;SDS011;11470;20.968;105.834;2023-04-25T17:28:56;18.92;;;11.18;;
22606;SDS011;11470;20.968;105.834;2023-04-25T17:34:01;18.77;;;11.60;;
22606;SDS011;11470;20.968;105.834;2023-04-25T17:39:07;19.35;;;10.98;;
22606;SDS011;11470;20.968;105.834;2023-04-25T17:44:24;17.33;;;10.82;;
22606;SDS011;11470;20.968;105.834;2023-04-25T17:49:48;18.83;;;10.70;;
22606;SDS011;11470;20.968;105.834;2023-04-25T17:54:57;17.83;;;10.93;;
22606;SDS011;11470;20.968;105.834;2023-04-25T18:00:03;15.30;;;9.50;;
22606;SDS011;11470;20.968;105.834;2023-04-25T18:05:13;18.23;;;10.68;;
22606;SDS011;11470;20.968;105.834;2023-04-25T18:10:19;18.60;;;10.27;;
22606;SDS011;11470;20.968;105.834;2023-04-25T18:15:25;18.55;;;10.65;;
22606;SDS011;11470;20.968;105.834;2023-04-25T18:20:31;18.45;;;9.35;;
22606;SDS011;11470;20.968;105.834;2023-04-25T18:25:36;13.47;;;9.00;;
22606;SDS011;11470;20.968;105.834;2023-04-25T18:30:42;25.37;;;9.63;;
22606;SDS011;11470;20.968;105.834;2023-04-25T18:35:59;14.63;;;10.05;;
22606;SDS011;11470;20.968;105.834;2023-04-25T18:41:05;20.20;;;10.32;;
22606;SDS011;11470;20.968;105.834;2023-04-25T18:46:31;20.10;;;10.40;;
22606;SDS011;11470;20.968;105.834;2023-04-25T18:51:37;21.20;;;11.27;;
22606;SDS011;11470;20.968;105.834;2023-04-25T18:56:43;23.90;;;15.05;;
22606;SDS011;11470;20.968;105.834;2023-04-25T19:06:56;25.02;;;13.80;;
22606;SDS011;11470;20.968;105.834;2023-04-25T19:12:02;27.60;;;16.10;;
22606;SDS011;11470;20.968;105.834;2023-04-25T19:17:08;35.42;;;20.25;;
22606;SDS011;11470;20.968;105.834;2023-04-25T19:22:14;31.13;;;18.80;;
22606;SDS011;11470;20.968;105.834;2023-04-25T19:27:20;21.27;;;13.80;;
22606;SDS011;11470;20.968;105.834;2023-04-25T19:32:25;25.45;;;15.65;;
22606;SDS011;11470;20.968;105.834;2023-04-25T19:37:31;23.10;;;12.93;;
22606;SDS011;11470;20.968;105.834;2023-04-25T19:42:36;26.67;;;14.83;;
22606;SDS011;11470;20.968;105.834;2023-04-25T19:47:42;24.57;;;14.17;;
22606;SDS011;11470;20.968;105.834;2023-04-25T19:52:47;29.25;;;15.75;;
22606;SDS011;11470;20.968;105.834;2023-04-25T19:57:59;27.35;;;16.20;;
22606;SDS011;11470;20.968;105.834;2023-04-25T20:03:06;28.02;;;15.60;;
22606;SDS011;11470;20.968;105.834;2023-04-25T20:08:13;28.02;;;15.85;;
22606;SDS011;11470;20.968;105.834;2023-04-25T20:13:19;32.88;;;17.52;;
22606;SDS011;11470;20.968;105.834;2023-04-25T20:18:26;25.75;;;15.05;;
22606;SDS011;11470;20.968;105.834;2023-04-25T20:23:33;23.23;;;13.02;;
22606;SDS011;11470;20.968;105.834;2023-04-25T20:33:44;26.33;;;16.63;;
22606;SDS011;11470;20.968;105.834;2023-04-25T20:38:50;28.90;;;16.08;;
22606;SDS011;11470;20.968;105.834;2023-04-25T20:43:56;23.77;;;15.57;;
22606;SDS011;11470;20.968;105.834;2023-04-25T20:49:03;26.88;;;14.38;;
22606;SDS011;11470;20.968;105.834;2023-04-25T20:54:09;22.30;;;11.73;;
22606;SDS011;11470;20.968;105.834;2023-04-25T20:59:15;25.63;;;13.57;;
22606;SDS011;11470;20.968;105.834;2023-04-25T21:04:22;30.77;;;16.37;;
22606;SDS011;11470;20.968;105.834;2023-04-25T21:09:27;30.33;;;14.77;;
22606;SDS011;11470;20.968;105.834;2023-04-25T21:14:33;26.00;;;16.52;;
22606;SDS011;11470;20.968;105.834;2023-04-25T21:19:39;31.45;;;16.55;;
22606;SDS011;11470;20.968;105.834;2023-04-25T21:24:45;32.88;;;15.98;;
22606;SDS011;11470;20.968;105.834;2023-04-25T21:29:53;27.33;;;15.05;;
22606;SDS011;11470;20.968;105.834;2023-04-25T21:34:58;27.83;;;15.23;;
22606;SDS011;11470;20.968;105.834;2023-04-25T21:40:04;26.92;;;15.52;;
22606;SDS011;11470;20.968;105.834;2023-04-25T21:45:11;25.85;;;14.20;;
22606;SDS011;11470;20.968;105.834;2023-04-25T21:50:17;24.45;;;14.85;;
22606;SDS011;11470;20.968;105.834;2023-04-25T21:55:23;24.40;;;14.03;;
22606;SDS011;11470;20.968;105.834;2023-04-25T22:00:30;25.63;;;14.48;;
22606;SDS011;11470;20.968;105.834;2023-04-25T22:05:37;22.60;;;13.25;;
22606;SDS011;11470;20.968;105.834;2023-04-25T22:10:43;28.88;;;14.57;;
22606;SDS011;11470;20.968;105.834;2023-04-25T22:15:49;22.60;;;12.73;;
22606;SDS011;11470;20.968;105.834;2023-04-25T22:26:00;22.75;;;13.57;;
22606;SDS011;11470;20.968;105.834;2023-04-25T22:31:05;23.67;;;12.57;;
22606;SDS011;11470;20.968;105.834;2023-04-25T22:36:11;30.60;;;14.70;;
22606;SDS011;11470;20.968;105.834;2023-04-25T22:41:17;27.75;;;15.98;;
22606;SDS011;11470;20.968;105.834;2023-04-25T22:46:23;24.67;;;13.45;;
22606;SDS011;11470;20.968;105.834;2023-04-25T22:51:30;25.13;;;14.45;;
22606;SDS011;11470;20.968;105.834;2023-04-25T22:56:35;24.15;;;13.60;;
22606;SDS011;11470;20.968;105.834;2023-04-25T23:01:41;28.50;;;14.87;;
22606;SDS011;11470;20.968;105.834;2023-04-25T23:06:46;23.52;;;13.18;;
22606;SDS011;11470;20.968;105.834;2023-04-25T23:11:52;24.90;;;14.70;;
22606;SDS011;11470;20.968;105.834;2023-04-25T23:16:59;26.17;;;15.32;;
22606;SDS011;11470;20.968;105.834;2023-04-25T23:22:04;28.53;;;14.10;;
22606;SDS011;11470;20.968;105.834;2023-04-25T23:27:10;26.75;;;16.05;;
22606;SDS011;11470;20.968;105.834;2023-04-25T23:32:16;26.67;;;14.57;;
22606;SDS011;11470;20.968;105.834;2023-04-25T23:37:21;24.30;;;13.82;;
22606;SDS011;11470;20.968;105.834;2023-04-25T23:42:27;35.15;;;18.83;;
22606;SDS011;11470;20.968;105.834;2023-04-25T23:47:33;28.30;;;15.02;;
22606;SDS011;11470;20.968;105.834;2023-04-25T23:52:39;28.10;;;16.60;;
22606;SDS011;11470;20.968;105.834;2023-04-25T23:57:44;30.10;;;18.38;;
